Time;durP1;ratioP1;P1;durP2;ratioP2;P2;SDS_P1;SDS_P2;PMS_P1;PMS_P2;Temp;Humidity;BMP_temperature;BMP_pressure;BME280_temperature;BME280_humidity;BME280_pressure;Samples;Min_cycle;Max_cycle;Signal;HPM_P1;HPM_P2
2022/03/04 00:00:17;;;;;;;43.38;18.10;;;;;;;0.67;82.02;100567.88;5012937;28;20042;-66
2022/03/04 00:02:42;;;;;;;48.80;18.60;;;;;;;0.70;81.85;100568.66;4987442;28;20068;-70
2022/03/04 00:05:08;;;;;;;45.42;19.33;;;;;;;0.79;82.07;100571.91;4987795;28;20440;-68
2022/03/04 00:07:33;;;;;;;44.47;18.48;;;;;;;0.81;81.52;100570.97;4982497;28;20508;-67
2022/03/04 00:09:58;;;;;;;45.00;18.13;;;;;;;0.77;81.93;100566.75;4984298;28;20023;-67
2022/03/04 00:12:24;;;;;;;45.50;17.20;;;;;;;0.81;81.92;100570.97;4989401;28;20030;-67
2022/03/04 00:14:49;;;;;;;49.10;17.88;;;;;;;0.90;81.74;100575.09;4989208;28;20108;-69
2022/03/04 00:17:14;;;;;;;49.42;20.40;;;;;;;0.88;81.16;100572.53;4984701;28;20034;-68
2022/03/04 00:19:39;;;;;;;53.42;19.67;;;;;;;0.72;81.57;100577.19;4987807;28;20109;-67
2022/03/04 00:22:05;;;;;;;48.40;18.77;;;;;;;0.66;82.45;100576.47;4988010;28;20105;-68
2022/03/04 00:24:31;;;;;;;50.35;20.67;;;;;;;0.71;82.06;100577.22;4988682;28;20042;-66
2022/03/04 00:26:56;;;;;;;42.60;18.73;;;;;;;0.67;82.37;100567.88;4986150;28;20567;-69
2022/03/04 00:29:21;;;;;;;45.50;19.00;;;;;;;0.69;82.79;100574.66;4985640;28;20365;-68
2022/03/04 00:31:47;;;;;;;47.22;18.55;;;;;;;0.69;82.01;100572.09;4989241;28;20161;-67
2022/03/04 00:34:12;;;;;;;48.58;18.83;;;;;;;0.74;81.79;100574.56;4983786;28;20388;-67
2022/03/04 00:36:39;;;;;;;49.13;18.40;;;;;;;0.79;82.34;100569.31;4989846;28;20029;-67
2022/03/04 00:39:07;;;;;;;41.10;18.70;;;;;;;0.60;82.91;100577.47;5014880;28;20030;-67
2022/03/04 00:41:33;;;;;;;48.75;19.55;;;;;;;0.57;82.78;100572.38;4984225;28;20866;-67
2022/03/04 00:43:58;;;;;;;46.50;18.80;;;;;;;0.62;82.61;100572.25;4988390;28;20034;-68
2022/03/04 00:46:24;;;;;;;46.30;18.98;;;;;;;0.62;82.59;100578.25;4988759;28;20026;-68
2022/03/04 00:48:49;;;;;;;55.42;18.27;;;;;;;0.60;82.69;100574.88;5018009;28;20022;-68
2022/03/04 00:51:15;;;;;;;43.70;18.10;;;;;;;0.52;83.18;100578.47;4983851;28;20503;-67
2022/03/04 00:53:41;;;;;;;53.50;20.10;;;;;;;0.53;82.96;100583.63;4988014;28;20022;-69
2022/03/04 00:56:08;;;;;;;53.20;18.85;;;;;;;0.54;82.92;100577.59;4986135;28;20030;-65
2022/03/04 00:58:34;;;;;;;49.47;18.95;;;;;;;0.50;83.16;100582.84;4986718;28;20040;-68
2022/03/04 01:01:00;;;;;;;51.30;19.63;;;;;;;0.50;83.21;100578.53;4997277;28;20097;-66
2022/03/04 01:03:25;;;;;;;66.00;19.67;;;;;;;0.52;83.11;100579.38;4990597;28;20041;-67
2022/03/04 01:05:51;;;;;;;48.03;18.48;;;;;;;0.54;83.70;100582.75;4989924;28;20039;-70
2022/03/04 01:08:18;;;;;;;52.83;20.25;;;;;;;0.56;83.04;100581.00;4991169;28;20062;-66
2022/03/04 01:10:44;;;;;;;52.25;20.60;;;;;;;0.58;83.09;100581.78;4990798;28;20042;-68
2022/03/04 01:13:09;;;;;;;47.45;19.67;;;;;;;0.59;83.74;100569.75;4991848;28;20080;-67
2022/03/04 01:15:35;;;;;;;61.40;21.40;;;;;;;0.58;83.39;100578.38;4992722;28;20018;-68
2022/03/04 01:18:00;;;;;;;59.55;22.52;;;;;;;0.46;83.49;100569.16;4992183;28;20137;-68
2022/03/04 01:20:26;;;;;;;54.88;21.08;;;;;;;0.41;84.27;100574.44;4988149;28;20138;-68
2022/03/04 01:22:51;;;;;;;59.85;23.00;;;;;;;0.38;84.39;100573.63;4992234;28;20038;-67
2022/03/04 01:25:16;;;;;;;68.65;22.60;;;;;;;0.31;84.71;100574.63;4991593;28;20036;-65
2022/03/04 01:27:41;;;;;;;63.28;22.40;;;;;;;0.33;84.24;100573.69;4989819;28;20026;-68
2022/03/04 01:30:09;;;;;;;65.97;22.80;;;;;;;0.35;84.85;100574.53;4989889;28;20053;-66
2022/03/04 01:32:36;;;;;;;57.58;20.45;;;;;;;0.33;84.62;100578.88;4990610;28;20061;-67
2022/03/04 01:35:01;;;;;;;55.13;21.33;;;;;;;0.34;84.70;100575.44;4985044;28;20034;-68
2022/03/04 01:37:27;;;;;;;58.15;22.08;;;;;;;0.32;84.87;100572.00;4991834;28;20025;-65
2022/03/04 01:39:52;;;;;;;59.28;22.27;;;;;;;0.32;84.83;100572.00;4992110;28;20026;-67
2022/03/04 01:42:18;;;;;;;54.13;22.80;;;;;;;0.34;84.92;100569.44;5021442;28;20060;-68
2022/03/04 01:44:45;;;;;;;60.55;21.80;;;;;;;0.38;84.62;100573.63;4988153;28;20039;-67
2022/03/04 01:47:11;;;;;;;59.65;21.67;;;;;;;0.48;85.13;100572.53;4990884;28;20034;-67
2022/03/04 01:49:38;;;;;;;58.45;22.95;;;;;;;0.48;83.98;100572.53;4988922;28;20123;-66
2022/03/04 01:52:03;;;;;;;67.95;23.63;;;;;;;0.43;84.65;100566.63;4991365;28;20026;-67
2022/03/04 01:54:29;;;;;;;62.05;23.17;;;;;;;0.42;84.89;100573.53;4991189;28;20081;-67
2022/03/04 01:56:54;;;;;;;65.18;24.65;;;;;;;0.39;84.86;100567.59;4986642;28;20023;-67
2022/03/04 01:59:19;;;;;;;61.10;22.45;;;;;;;0.37;85.33;100577.06;4985856;28;20054;-68
2022/03/04 02:01:45;;;;;;;78.70;26.70;;;;;;;0.34;85.17;100575.44;4987806;28;20449;-67
2022/03/04 02:04:10;;;;;;;63.83;23.33;;;;;;;0.36;85.14;100577.97;5013642;22;20734;-70
2022/03/04 02:06:35;;;;;;;65.60;24.70;;;;;;;0.34;85.09;100561.69;5031013;28;20415;-71
2022/03/04 02:09:01;;;;;;;69.18;26.35;;;;;;;0.31;85.11;100561.75;5028814;28;20037;-69
2022/03/04 02:11:26;;;;;;;68.40;26.90;;;;;;;0.28;84.61;100569.53;5028769;28;20042;-70
2022/03/04 02:13:52;;;;;;;76.07;25.90;;;;;;;0.26;85.46;100566.13;5026924;28;20037;-71
2022/03/04 02:16:36;;;;;;;73.40;25.55;;;;;;;0.22;85.56;100558.47;5028067;28;20029;-72
2022/03/04 02:19:03;;;;;;;66.97;25.65;;;;;;;0.26;85.41;100563.56;5028695;28;20101;-71
2022/03/04 02:21:31;;;;;;;80.13;27.55;;;;;;;0.26;85.25;100558.38;5029649;28;20057;-66
2022/03/04 02:23:57;;;;;;;75.70;26.85;;;;;;;0.27;85.51;100557.53;5026647;28;20034;-70
2022/03/04 02:26:22;;;;;;;68.85;25.83;;;;;;;0.21;85.64;100564.50;5026633;28;20046;-71
2022/03/04 02:28:47;;;;;;;68.55;25.75;;;;;;;0.19;85.94;100555.09;5023318;28;20033;-71
2022/03/04 02:31:18;;;;;;;70.20;25.42;;;;;;;0.13;86.56;100557.81;5026580;28;20029;-71
2022/03/04 02:33:44;;;;;;;71.60;26.70;;;;;;;0.22;86.47;100561.06;5029460;28;20372;-71
2022/03/04 02:36:09;;;;;;;76.53;27.35;;;;;;;0.20;86.55;100560.22;5025682;28;20033;-68
2022/03/04 02:38:35;;;;;;;70.32;28.13;;;;;;;0.20;85.78;100552.50;5029472;28;20124;-71
2022/03/04 02:41:00;;;;;;;73.35;27.40;;;;;;;0.14;86.18;100549.19;5029467;28;20025;-73
2022/03/04 02:43:26;;;;;;;68.00;27.02;;;;;;;0.22;86.50;100553.31;5027092;28;20013;-72
2022/03/04 02:45:52;;;;;;;79.30;26.75;;;;;;;0.22;85.76;100552.44;5029334;28;20024;-73
2022/03/04 02:48:18;;;;;;;68.07;26.38;;;;;;;0.23;86.04;100551.59;5024441;28;20045;-72
2022/03/04 02:50:43;;;;;;;75.15;28.40;;;;;;;0.18;85.89;100553.38;5020626;28;20064;-71
2022/03/04 02:53:09;;;;;;;72.97;27.73;;;;;;;0.14;86.85;100544.88;5027286;28;20056;-71
2022/03/04 02:55:35;;;;;;;77.43;26.63;;;;;;;0.16;86.72;100545.69;5029418;28;20144;-71
2022/03/04 02:58:00;;;;;;;87.15;28.58;;;;;;;0.23;86.62;100555.00;5027172;28;20108;-71
2022/03/04 03:00:25;;;;;;;78.68;30.13;;;;;;;0.13;86.29;100556.06;5029450;28;20152;-72
2022/03/04 03:02:51;;;;;;;72.20;27.58;;;;;;;0.14;87.29;100555.19;5023777;28;20545;-70
2022/03/04 03:05:16;;;;;;;77.90;28.48;;;;;;;0.10;86.81;100552.69;5027062;28;20041;-71
2022/03/04 03:07:42;;;;;;;83.32;29.52;;;;;;;0.08;86.93;100555.31;5028372;28;20036;-71
2022/03/04 03:10:09;;;;;;;82.53;28.77;;;;;;;0.06;87.31;100564.78;5029512;28;20032;-72
2022/03/04 03:12:34;;;;;;;80.78;27.35;;;;;;;0.11;87.68;100564.69;5028978;28;20415;-71
2022/03/04 03:14:59;;;;;;;84.53;28.35;;;;;;;0.13;87.56;100568.13;5024360;28;20499;-69
2022/03/04 03:17:25;;;;;;;82.68;27.70;;;;;;;0.18;87.00;100567.13;5028264;28;20026;-71
2022/03/04 03:19:50;;;;;;;88.05;29.27;;;;;;;0.17;87.00;100562.84;5028880;28;20038;-72
2022/03/04 03:22:18;;;;;;;78.53;28.17;;;;;;;0.18;87.17;100574.00;5024776;28;20174;-72
2022/03/04 03:24:44;;;;;;;78.35;27.55;;;;;;;0.10;87.05;100566.44;5028837;28;20091;-71
2022/03/04 03:27:12;;;;;;;70.25;26.92;;;;;;;0.13;87.65;100568.13;5027421;28;20124;-71
2022/03/04 03:29:38;;;;;;;80.85;29.42;;;;;;;0.10;87.22;100575.91;5028651;28;20033;-68
2022/03/04 03:32:04;;;;;;;78.25;28.88;;;;;;;0.10;87.91;100571.59;5026128;28;20044;-71
2022/03/04 03:34:29;;;;;;;81.63;27.40;;;;;;;0.08;87.70;100578.53;5026169;28;20030;-71
2022/03/04 03:36:55;;;;;;;83.18;28.30;;;;;;;0.11;87.46;100573.31;5026128;28;20041;-72
2022/03/04 03:39:20;;;;;;;78.22;29.35;;;;;;;0.12;87.53;100569.84;5027098;28;20041;-72
2022/03/04 03:41:46;;;;;;;83.45;28.88;;;;;;;0.14;87.62;100564.66;5025616;28;20099;-71
2022/03/04 03:44:11;;;;;;;84.30;29.42;;;;;;;0.18;87.28;100571.44;5026071;28;20120;-72
2022/03/04 03:46:36;;;;;;;83.20;28.83;;;;;;;0.10;87.15;100574.16;5026392;28;20056;-71
2022/03/04 03:49:02;;;;;;;77.90;27.80;;;;;;;0.12;87.64;100575.00;5027016;28;20074;-73
2022/03/04 03:51:27;;;;;;;80.13;28.75;;;;;;;0.10;87.49;100573.31;5026354;28;20037;-69
2022/03/04 03:53:52;;;;;;;77.40;29.10;;;;;;;0.07;87.67;100579.38;5025143;28;20052;-72
2022/03/04 03:56:17;;;;;;;84.78;30.58;;;;;;;0.17;87.85;100577.47;5026177;28;20513;-71
2022/03/04 03:58:43;;;;;;;82.97;29.23;;;;;;;0.23;87.49;100585.09;5027409;28;20073;-72
2022/03/04 04:01:08;;;;;;;93.65;29.33;;;;;;;0.14;88.15;100582.69;5032650;28;20103;-72
2022/03/04 04:03:33;;;;;;;92.35;29.52;;;;;;;0.02;88.61;100581.22;5051232;28;20052;-73
2022/03/04 04:05:59;;;;;;;76.38;28.65;;;;;;;0.08;88.24;100583.69;5053097;28;20024;-74
2022/03/04 04:08:24;;;;;;;81.47;28.80;;;;;;;0.16;87.67;100581.78;5034007;28;20092;-71
2022/03/04 04:10:49;;;;;;;84.45;28.92;;;;;;;0.12;87.59;100580.16;5028961;28;20100;-74
2022/03/04 04:13:15;;;;;;;75.95;27.92;;;;;;;0.11;87.79;100585.31;5023667;28;20418;-71
2022/03/04 04:15:40;;;;;;;76.63;27.70;;;;;;;0.12;87.20;100585.31;5025588;28;20105;-70
2022/03/04 04:18:05;;;;;;;96.25;29.67;;;;;;;0.19;88.24;100586.91;5026695;28;20093;-71
2022/03/04 04:20:31;;;;;;;78.22;28.50;;;;;;;0.26;87.39;100595.38;5023490;28;20099;-70
2022/03/04 04:22:56;;;;;;;81.72;29.50;;;;;;;0.26;87.10;100581.59;5022339;28;20115;-71
2022/03/04 04:25:21;;;;;;;83.13;28.40;;;;;;;0.28;87.20;100591.00;5028084;28;20033;-74
2022/03/04 04:27:47;;;;;;;85.15;28.35;;;;;;;0.24;87.35;100592.81;5028465;28;20126;-72
2022/03/04 04:30:13;;;;;;;91.47;30.55;;;;;;;0.23;87.45;100590.25;5024920;28;20048;-73
2022/03/04 04:32:38;;;;;;;93.57;31.17;;;;;;;0.20;87.16;100591.16;5032015;28;20033;-73
2022/03/04 04:35:05;;;;;;;89.22;30.23;;;;;;;0.22;87.42;100591.13;5023698;28;20125;-71
2022/03/04 04:37:30;;;;;;;82.78;30.10;;;;;;;0.27;87.42;100591.06;5014056;28;20376;-71
2022/03/04 04:39:58;;;;;;;106.53;30.20;;;;;;;0.34;87.14;100593.47;5027413;28;20109;-73
2022/03/04 04:42:24;;;;;;;86.13;29.00;;;;;;;0.37;86.94;100590.84;5030231;28;20034;-71
2022/03/04 04:44:50;;;;;;;91.22;31.05;;;;;;;0.36;87.10;100591.69;5026363;28;20038;-72
2022/03/04 04:47:16;;;;;;;83.85;28.90;;;;;;;0.36;86.59;100593.44;5025933;28;20121;-69
2022/03/04 04:49:41;;;;;;;83.95;28.60;;;;;;;0.25;86.98;100593.66;5031273;28;20030;-72
2022/03/04 04:52:08;;;;;;;85.93;29.88;;;;;;;0.22;87.18;100592.00;5032125;28;20718;-70
2022/03/04 04:54:34;;;;;;;97.45;30.15;;;;;;;0.17;87.32;100586.06;5031384;28;20108;-70
2022/03/04 04:57:00;;;;;;;98.80;29.88;;;;;;;0.18;87.88;100589.50;5030168;28;20535;-71
2022/03/04 04:59:25;;;;;;;100.78;29.23;;;;;;;0.21;87.40;100587.69;5031366;28;20037;-70
2022/03/04 05:01:50;;;;;;;94.50;30.88;;;;;;;0.24;87.18;100587.66;5027303;28;20065;-71
2022/03/04 05:04:15;;;;;;;106.18;32.58;;;;;;;0.25;87.68;100591.06;5024065;28;20029;-73
2022/03/04 05:06:41;;;;;;;92.20;29.77;;;;;;;0.29;87.26;100591.84;5019888;28;20398;-71
2022/03/04 05:09:06;;;;;;;92.35;29.95;;;;;;;0.29;87.50;100594.44;5029613;28;20041;-71
2022/03/04 05:11:31;;;;;;;112.65;32.22;;;;;;;0.31;86.93;100590.13;5030076;28;20057;-73
2022/03/04 05:13:57;;;;;;;101.28;28.70;;;;;;;0.32;87.04;100596.97;5029799;28;20037;-72
2022/03/04 05:16:22;;;;;;;92.75;30.00;;;;;;;0.30;87.14;100596.13;5031904;28;20049;-72
2022/03/04 05:18:47;;;;;;;97.43;30.60;;;;;;;0.25;87.88;100596.22;5032328;28;20514;-73
2022/03/04 05:21:13;;;;;;;100.28;31.00;;;;;;;0.24;87.74;100599.69;5031144;28;20048;-74
2022/03/04 05:26:22;;;;;;;118.43;32.58;;;;;;;0.28;87.97;100606.50;5031793;28;20541;-72
2022/03/04 05:28:47;;;;;;;111.93;34.08;;;;;;;0.29;87.92;100604.75;5030761;28;20037;-72
2022/03/04 05:31:13;;;;;;;105.97;32.05;;;;;;;0.32;87.39;100602.13;5028276;28;20079;-71
2022/03/04 05:33:38;;;;;;;110.28;32.15;;;;;;;0.34;87.69;100606.38;5024991;28;20032;-71
2022/03/04 05:36:04;;;;;;;104.30;31.75;;;;;;;0.33;87.46;100608.97;5027323;28;20103;-73
2022/03/04 05:38:29;;;;;;;108.82;31.95;;;;;;;0.28;87.10;100597.91;5031043;28;20041;-73
2022/03/04 05:40:55;;;;;;;101.97;30.73;;;;;;;0.23;86.93;100596.28;5030082;28;20044;-71
2022/03/04 05:43:21;;;;;;;102.53;34.35;;;;;;;0.19;87.55;100602.38;5031085;28;20022;-71
2022/03/04 05:45:46;;;;;;;101.68;34.45;;;;;;;0.14;87.68;100603.31;5032081;28;20105;-73
2022/03/04 05:48:11;;;;;;;96.18;31.15;;;;;;;0.20;88.05;100598.91;5019285;28;20046;-72
2022/03/04 05:50:37;;;;;;;106.40;32.78;;;;;;;0.16;87.34;100609.31;5031401;28;20196;-72
2022/03/04 05:53:05;;;;;;;106.80;32.83;;;;;;;0.10;87.62;100612.84;5020178;28;20470;-72
2022/03/04 05:55:30;;;;;;;101.00;33.28;;;;;;;0.15;87.61;100613.63;5030021;28;20517;-72
2022/03/04 05:57:55;;;;;;;87.90;29.85;;;;;;;0.14;87.65;100603.31;5029800;28;20104;-71
2022/03/04 06:00:21;;;;;;;100.38;33.92;;;;;;;0.02;87.89;100609.56;5027352;28;20108;-72
2022/03/04 06:02:47;;;;;;;100.88;32.17;;;;;;;0.09;88.13;100612.88;5028896;28;20032;-71
2022/03/04 06:05:12;;;;;;;111.35;34.75;;;;;;;0.17;87.91;100609.28;5027204;28;20124;-71
2022/03/04 06:07:38;;;;;;;101.75;34.10;;;;;;;0.18;87.60;100608.38;5024726;28;20126;-73
2022/03/04 06:10:03;;;;;;;99.85;29.45;;;;;;;0.14;87.26;100618.78;5027881;28;20529;-72
2022/03/04 06:12:28;;;;;;;108.40;33.22;;;;;;;0.09;88.28;100626.63;5030284;28;20033;-72
2022/03/04 06:14:54;;;;;;;103.85;30.55;;;;;;;0.15;87.41;100626.50;5026170;28;20037;-71
2022/03/04 06:17:19;;;;;;;110.53;32.45;;;;;;;0.16;87.97;100630.78;5021998;28;20034;-71
2022/03/04 06:19:44;;;;;;;130.93;34.78;;;;;;;0.14;88.03;100631.69;5030226;28;20129;-70
2022/03/04 06:22:10;;;;;;;115.75;32.30;;;;;;;0.13;87.42;100637.72;5029967;28;20022;-72
2022/03/04 06:24:36;;;;;;;105.05;32.88;;;;;;;0.12;87.66;100630.88;5029852;28;20541;-73
2022/03/04 06:27:02;;;;;;;116.68;35.25;;;;;;;0.05;87.73;100640.44;5029457;28;20087;-70
2022/03/04 06:29:27;;;;;;;113.63;32.47;;;;;;;0.08;88.01;100632.66;5030318;28;20033;-71
2022/03/04 06:31:52;;;;;;;134.43;34.13;;;;;;;0.09;88.40;100636.09;5029824;28;20067;-71
2022/03/04 06:34:18;;;;;;;126.60;34.53;;;;;;;0.15;87.77;100638.53;5028842;28;20082;-71
2022/03/04 06:36:43;;;;;;;133.13;34.72;;;;;;;0.19;87.68;100622.16;5029019;28;20021;-68
2022/03/04 06:39:08;;;;;;;122.45;34.53;;;;;;;0.17;87.82;100621.31;5027992;28;20035;-71
2022/03/04 06:41:34;;;;;;;119.78;35.22;;;;;;;0.22;88.07;100627.22;5029539;28;20063;-70
2022/03/04 06:43:59;;;;;;;127.00;35.40;;;;;;;0.28;87.64;100621.97;5026273;28;20033;-70
2022/03/04 06:46:25;;;;;;;139.77;38.05;;;;;;;0.29;87.54;100625.38;5029191;28;20025;-70
2022/03/04 06:48:50;;;;;;;124.43;35.15;;;;;;;0.32;87.36;100633.06;5030298;28;20033;-71
2022/03/04 06:51:15;;;;;;;165.38;40.40;;;;;;;0.28;87.30;100632.28;5027755;28;20124;-70
2022/03/04 06:53:41;;;;;;;134.23;36.40;;;;;;;0.29;87.73;100630.53;5029327;28;20169;-70
2022/03/04 06:56:06;;;;;;;139.15;35.35;;;;;;;0.36;87.27;100638.13;5027681;28;20112;-71
2022/03/04 06:58:32;;;;;;;132.15;37.53;;;;;;;0.36;86.39;100635.56;5029083;28;20113;-70
2022/03/04 07:00:57;;;;;;;149.18;37.90;;;;;;;0.38;86.28;100633.81;5026261;28;20013;-71
2022/03/04 07:03:23;;;;;;;148.45;39.88;;;;;;;0.36;86.03;100630.38;5029400;28;20153;-71
2022/03/04 07:05:49;;;;;;;133.88;35.38;;;;;;;0.34;86.13;100639.06;5028946;28;20095;-70
2022/03/04 07:08:14;;;;;;;122.82;36.08;;;;;;;0.29;86.54;100633.97;5028016;28;20172;-69
2022/03/04 07:10:42;;;;;;;121.00;35.53;;;;;;;0.37;86.08;100642.44;5022838;28;20120;-72
2022/03/04 07:13:08;;;;;;;135.52;36.28;;;;;;;0.41;85.61;100646.66;5028330;28;20025;-70
2022/03/04 07:15:33;;;;;;;121.65;36.35;;;;;;;0.40;85.72;100646.66;5029045;28;20040;-69
2022/03/04 07:17:59;;;;;;;140.13;36.50;;;;;;;0.41;85.44;100653.53;5026625;28;20022;-70
2022/03/04 07:20:24;;;;;;;120.93;33.38;;;;;;;0.43;85.28;100649.19;5028990;28;20060;-71
2022/03/04 07:22:49;;;;;;;122.72;33.85;;;;;;;0.37;85.24;100641.56;5028586;28;20053;-70
2022/03/04 07:25:18;;;;;;;121.68;34.03;;;;;;;0.46;85.19;100641.38;5027937;28;20035;-70
2022/03/04 07:27:43;;;;;;;125.75;35.97;;;;;;;0.53;84.90;100647.28;5026857;28;20436;-70
2022/03/04 07:30:11;;;;;;;112.03;34.22;;;;;;;0.56;84.73;100652.38;5027221;28;20141;-70
2022/03/04 07:32:37;;;;;;;110.28;34.45;;;;;;;0.58;83.97;100656.63;5036208;28;20116;-72
2022/03/04 07:35:04;;;;;;;102.97;32.97;;;;;;;0.52;84.64;100659.34;5028991;28;20029;-70
2022/03/04 07:37:29;;;;;;;131.93;36.42;;;;;;;0.45;84.90;100660.34;5029219;28;20616;-71
2022/03/04 07:39:54;;;;;;;120.65;33.13;;;;;;;0.39;85.44;100661.28;5029916;28;20100;-72
2022/03/04 07:42:21;;;;;;;124.45;33.90;;;;;;;0.49;84.72;100667.13;5029317;28;20101;-71
2022/03/04 07:44:46;;;;;;;125.32;34.95;;;;;;;0.52;85.03;100671.38;5033189;28;20041;-70
2022/03/04 07:47:11;;;;;;;124.88;35.60;;;;;;;0.57;84.42;100675.56;5025867;28;20415;-68
2022/03/04 07:49:37;;;;;;;117.13;35.03;;;;;;;0.59;84.34;100671.22;5037251;28;20040;-74
2022/03/04 07:52:03;;;;;;;111.47;33.63;;;;;;;0.59;84.57;100667.78;5050782;28;20434;-70
2022/03/04 07:54:28;;;;;;;125.18;33.38;;;;;;;0.69;84.27;100671.88;5043404;28;20026;-70
2022/03/04 07:56:55;;;;;;;125.40;34.50;;;;;;;0.76;83.92;100670.03;5025164;28;20030;-71
2022/03/04 07:59:20;;;;;;;117.72;32.55;;;;;;;0.78;83.39;100657.94;5028147;28;20486;-69
2022/03/04 08:01:46;;;;;;;128.88;34.15;;;;;;;0.78;83.91;100673.41;5027862;28;20034;-69
2022/03/04 08:04:11;;;;;;;123.80;34.15;;;;;;;0.80;83.60;100675.09;5025438;28;20030;-68
2022/03/04 08:06:38;;;;;;;115.90;33.75;;;;;;;0.90;83.50;100670.59;5018788;28;20380;-69
2022/03/04 08:09:03;;;;;;;127.00;35.08;;;;;;;0.91;83.67;100674.88;5026984;28;20625;-70
2022/03/04 08:11:28;;;;;;;120.72;33.70;;;;;;;1.03;82.62;100668.59;5022350;28;20053;-70
2022/03/04 08:13:54;;;;;;;124.25;34.88;;;;;;;1.10;82.42;100676.19;5017944;28;20045;-70
2022/03/04 08:16:19;;;;;;;117.03;36.92;;;;;;;1.07;82.87;100673.66;5034673;28;20030;-69
2022/03/04 08:18:44;;;;;;;123.82;33.90;;;;;;;1.18;82.27;100676.00;5023302;28;20026;-70
2022/03/04 08:21:11;;;;;;;112.80;31.73;;;;;;;1.31;81.96;100674.03;5018770;28;20083;-70
2022/03/04 08:23:37;;;;;;;127.88;34.55;;;;;;;1.44;81.02;100684.00;5021032;28;20037;-70
2022/03/04 08:26:03;;;;;;;107.72;30.40;;;;;;;1.41;80.24;100691.03;5021626;28;20045;-71
2022/03/04 08:28:30;;;;;;;99.88;29.70;;;;;;;1.34;80.59;100686.88;5021332;28;20552;-71
2022/03/04 08:30:56;;;;;;;95.50;30.35;;;;;;;1.40;80.73;100679.81;5022203;28;20014;-72
2022/03/04 08:33:21;;;;;;;99.13;31.40;;;;;;;1.43;80.39;100686.66;5020106;28;20040;-71
2022/03/04 08:35:46;;;;;;;112.22;33.53;;;;;;;1.44;80.06;100680.59;5021309;28;20048;-72
2022/03/04 08:38:12;;;;;;;107.60;32.72;;;;;;;1.40;79.93;100679.81;5021579;28;20601;-71
2022/03/04 08:40:37;;;;;;;100.38;29.65;;;;;;;1.53;80.15;100682.13;5021822;28;20047;-72
2022/03/04 08:43:02;;;;;;;94.07;29.33;;;;;;;1.58;79.59;100682.84;5020369;28;20052;-72
2022/03/04 08:45:28;;;;;;;94.57;29.45;;;;;;;1.66;79.32;100679.19;5020382;28;20103;-69
2022/03/04 08:47:53;;;;;;;90.80;29.33;;;;;;;1.75;79.20;100687.63;5021595;28;20141;-70
2022/03/04 08:50:21;;;;;;;84.03;30.08;;;;;;;1.92;78.51;100695.81;5020619;28;20523;-71
2022/03/04 08:52:47;;;;;;;79.00;25.75;;;;;;;1.98;77.57;100694.81;5019722;28;20061;-74
2022/03/04 08:55:16;;;;;;;66.55;25.38;;;;;;;1.81;77.86;100696.06;5019243;28;20592;-69
2022/03/04 08:57:46;;;;;;;66.65;23.33;;;;;;;1.75;77.75;100693.66;5022264;28;20040;-72
2022/03/04 09:00:13;;;;;;;70.53;23.95;;;;;;;1.75;77.51;100687.63;5023858;28;20056;-70
2022/03/04 09:02:38;;;;;;;77.38;22.45;;;;;;;1.75;77.59;100695.41;5020941;28;20155;-70
2022/03/04 09:05:05;;;;;;;70.90;25.85;;;;;;;1.69;77.88;100699.81;5019160;28;20064;-68
2022/03/04 09:07:30;;;;;;;62.90;21.20;;;;;;;1.61;78.00;100703.47;5019882;28;20049;-70
2022/03/04 09:09:55;;;;;;;64.50;24.90;;;;;;;1.66;77.90;100704.19;5021792;28;20017;-70
2022/03/04 09:12:21;;;;;;;75.13;25.15;;;;;;;1.83;77.77;100703.81;5020984;28;20060;-72
2022/03/04 09:14:46;;;;;;;58.50;22.40;;;;;;;1.94;76.36;100701.81;5021035;28;20107;-73
2022/03/04 09:17:11;;;;;;;51.60;18.95;;;;;;;2.00;76.61;100704.22;5024919;28;20041;-72
2022/03/04 09:19:37;;;;;;;53.53;20.55;;;;;;;2.07;75.82;100712.69;5025255;28;20046;-70
2022/03/04 09:22:03;;;;;;;67.20;23.38;;;;;;;1.87;76.44;100714.03;5024976;28;20035;-69
2022/03/04 09:24:28;;;;;;;61.63;23.33;;;;;;;1.85;76.66;100705.44;5022478;28;20044;-70
2022/03/04 09:26:54;;;;;;;52.58;19.02;;;;;;;1.88;76.45;100718.31;5021757;28;20117;-68
2022/03/04 09:29:20;;;;;;;54.97;18.77;;;;;;;2.03;76.15;100714.50;5023983;28;20029;-70
2022/03/04 09:31:45;;;;;;;55.88;21.25;;;;;;;2.22;74.83;100714.03;5024126;28;20041;-72
2022/03/04 09:34:11;;;;;;;71.03;24.17;;;;;;;1.98;76.19;100718.09;5022768;28;20025;-70
2022/03/04 09:36:37;;;;;;;66.50;25.88;;;;;;;1.91;76.21;100714.81;5024680;28;20025;-72
2022/03/04 09:39:03;;;;;;;59.17;25.48;;;;;;;1.89;76.24;100720.03;5023014;28;20044;-71
2022/03/04 09:41:28;;;;;;;56.83;20.83;;;;;;;1.98;76.12;100725.84;5022590;28;20040;-70
2022/03/04 09:43:54;;;;;;;45.10;18.58;;;;;;;2.14;76.16;100722.00;5022417;28;20441;-69
2022/03/04 09:46:21;;;;;;;49.55;18.25;;;;;;;2.23;75.21;100728.69;5021990;28;20055;-70
2022/03/04 09:48:48;;;;;;;50.85;18.75;;;;;;;2.34;74.74;100719.75;5024743;28;20112;-71
2022/03/04 09:51:14;;;;;;;49.75;18.80;;;;;;;2.33;74.99;100719.78;5024829;28;20037;-69
2022/03/04 09:53:39;;;;;;;52.67;19.25;;;;;;;2.43;74.56;100722.09;5020875;28;20070;-69
2022/03/04 09:56:05;;;;;;;62.42;22.60;;;;;;;2.46;74.02;100725.50;5024099;28;20041;-71
2022/03/04 09:58:30;;;;;;;58.55;21.55;;;;;;;2.47;74.28;100716.84;5023631;28;20044;-71
2022/03/04 10:00:55;;;;;;;50.35;20.13;;;;;;;2.41;74.58;100720.41;5022440;28;20082;-70
2022/03/04 10:03:21;;;;;;;54.20;20.20;;;;;;;2.38;75.08;100723.97;5020472;28;20033;-70
2022/03/04 10:05:51;;;;;;;63.95;22.58;;;;;;;2.31;75.21;100722.41;5021705;28;20029;-72
2022/03/04 10:08:18;;;;;;;81.05;30.45;;;;;;;2.16;75.91;100723.66;5020916;28;20117;-69
2022/03/04 10:10:50;;;;;;;66.18;25.80;;;;;;;2.24;75.32;100728.63;5023637;28;20061;-70
2022/03/04 10:13:16;;;;;;;103.63;39.03;;;;;;;2.21;75.84;100730.44;5023310;28;20406;-71
2022/03/04 10:15:54;;;;;;;89.13;33.50;;;;;;;2.59;75.28;100717.34;5022796;28;20356;-72
2022/03/04 10:18:25;;;;;;;61.58;24.80;;;;;;;2.74;74.04;100726.44;5023267;28;20025;-70
2022/03/04 10:20:50;;;;;;;48.75;18.63;;;;;;;2.67;74.10;100728.38;5020974;28;20112;-71
2022/03/04 10:23:19;;;;;;;50.40;18.10;;;;;;;2.69;74.18;100725.72;5021962;28;20450;-71
2022/03/04 10:25:47;;;;;;;52.25;19.05;;;;;;;2.63;73.80;100721.56;5022800;28;20033;-72
2022/03/04 10:28:14;;;;;;;62.13;23.88;;;;;;;2.51;74.60;100723.63;5022645;28;20108;-71
2022/03/04 10:30:47;;;;;;;54.33;17.73;;;;;;;2.55;74.66;100727.81;5022995;28;20436;-73
2022/03/04 10:33:15;;;;;;;42.00;15.23;;;;;;;2.29;74.85;100723.34;5022566;28;20510;-72
2022/03/04 10:35:41;;;;;;;37.73;13.33;;;;;;;2.16;75.28;100728.00;5022006;28;20041;-69
2022/03/04 10:38:17;;;;;;;26.10;10.38;;;;;;;2.33;74.57;100730.13;5023220;28;20389;-70
2022/03/04 10:40:45;;;;;;;31.00;11.57;;;;;;;2.09;74.67;100716.94;5021039;28;20033;-71
2022/03/04 10:43:12;;;;;;;37.97;13.85;;;;;;;2.23;74.76;100724.38;5022670;28;20196;-73
2022/03/04 10:45:43;;;;;;;43.42;15.13;;;;;;;2.16;74.29;100717.63;5021729;28;20552;-72
2022/03/04 10:48:17;;;;;;;50.33;19.35;;;;;;;2.14;74.29;100715.06;5021061;28;20057;-71
2022/03/04 10:50:42;;;;;;;31.30;11.93;;;;;;;2.30;73.77;100712.09;5022287;28;20065;-70
2022/03/04 10:53:10;;;;;;;47.33;16.85;;;;;;;2.35;73.15;100707.66;5021041;28;20123;-68
2022/03/04 10:55:49;;;;;;;100.18;29.20;;;;;;;2.28;73.54;100706.97;5015813;28;20057;-70
2022/03/04 10:58:22;;;;;;;47.30;16.40;;;;;;;2.41;73.49;100707.47;5002205;28;20499;-70
2022/03/04 11:00:56;;;;;;;33.65;12.77;;;;;;;2.60;72.57;100708.72;5001399;28;20018;-70
2022/03/04 11:03:26;;;;;;;50.17;17.15;;;;;;;2.59;72.53;100712.16;5017340;28;20045;-70
2022/03/04 11:05:55;;;;;;;53.03;16.45;;;;;;;2.44;72.86;100704.81;5022127;28;20101;-71
2022/03/04 11:08:21;;;;;;;47.33;15.55;;;;;;;2.38;74.15;100703.25;5020852;28;20084;-69
2022/03/04 11:10:46;;;;;;;78.05;26.15;;;;;;;2.24;73.86;100700.19;5022674;28;20073;-69